Time;durP1;ratioP1;P1;durP2;ratioP2;P2;SDS_P1;SDS_P2;PMS_P1;PMS_P2;Temp;Humidity;BMP_temperature;BMP_pressure;BME280_temperature;BME280_humidity;BME280_pressure;Samples;Min_cycle;Max_cycle;Signal;HPM_P1;HPM_P2
2023/02/03 06:47:08;;;;;;;21.73;3.45;;;8.80;99.90;;;;;;6102834;22;1263518;-83
2023/02/03 06:49:54;;;;;;;30.42;3.75;;;8.80;99.90;;;;;;6149628;23;20367;-82
2023/02/03 06:52:41;;;;;;;22.00;4.03;;;8.90;99.90;;;;;;6125175;23;20021;-82
2023/02/03 06:55:19;;;;;;;27.70;4.65;;;8.70;99.90;;;;;;6150887;23;20063;-82
2023/02/03 06:57:46;;;;;;;22.33;4.40;;;9.10;99.90;;;;;;6150909;23;20055;-81
2023/02/03 07:00:16;;;;;;;23.30;3.35;;;8.70;99.90;;;;;;6127705;23;20068;-82
2023/02/03 07:02:44;;;;;;;22.05;3.13;;;9.10;99.90;;;;;;6125545;23;20024;-81
2023/02/03 07:05:40;;;;;;;28.20;4.35;;;8.70;99.90;;;;;;6101400;23;20017;-81
2023/02/03 07:08:06;;;;;;;22.67;3.65;;;8.80;99.90;;;;;;6094897;23;20097;-82
2023/02/03 07:10:40;;;;;;;20.10;3.63;;;9.20;99.90;;;;;;6095297;23;20022;-81
2023/02/03 07:13:07;;;;;;;24.35;4.13;;;9.20;99.90;;;;;;6115438;23;20014;-82
2023/02/03 07:15:46;;;;;;;27.15;4.07;;;8.90;99.90;;;;;;6094532;23;20044;-81
2023/02/03 07:18:30;;;;;;;22.02;3.70;;;9.20;99.90;;;;;;6111439;23;20018;-81
2023/02/03 07:25:36;;;;;;;27.05;3.92;;;8.70;99.90;;;;;;5971755;24;20036;-82
2023/02/03 07:33:27;;;;;;;;;;;;;;;;;;;;;
2023/02/03 07:39:49;;;;;;;36.22;5.03;;;8.40;99.90;;;;;;5840217;24;20029;-82
2023/02/03 07:42:20;;;;;;;33.78;4.40;;;8.30;99.90;;;;;;5819978;24;20020;-82
2023/02/03 07:45:30;;;;;;;32.10;4.97;;;8.80;99.90;;;;;;5821066;24;20013;-83
2023/02/03 07:47:59;;;;;;;43.58;5.65;;;8.50;99.90;;;;;;5839637;24;20109;-82
2023/02/03 08:08:14;;;;;;;32.97;5.18;;;8.40;99.90;;;;;;6370964;21;20095;-85
2023/02/03 08:11:01;;;;;;;32.17;4.85;;;8.70;99.90;;;;;;5338749;22;22383989;-86
2023/02/03 08:13:27;;;;;;;39.42;5.85;;;8.40;99.90;;;;;;6315154;22;20334;-85
2023/02/03 08:15:53;;;;;;;39.20;5.78;;;9.00;99.90;;;;;;6313898;22;20021;-82
2023/02/03 08:18:21;;;;;;;37.15;5.32;;;8.60;99.90;;;;;;6320299;22;20055;-83
2023/02/03 08:20:50;;;;;;;34.40;5.13;;;8.40;99.90;;;;;;6315042;22;20010;-84
2023/02/03 08:23:16;;;;;;;41.78;6.15;;;9.10;99.90;;;;;;6310963;22;20046;-83
2023/02/03 08:25:50;;;;;;;32.40;4.88;;;8.50;99.90;;;;;;6310593;22;20018;-83
2023/02/03 08:28:16;;;;;;;32.50;5.53;;;8.50;99.90;;;;;;6314299;22;20020;-81
2023/02/03 08:30:42;;;;;;;34.38;5.45;;;9.00;99.90;;;;;;6337418;22;20351;-82
2023/02/03 08:33:15;;;;;;;34.65;5.70;;;9.10;99.90;;;;;;6310587;22;20018;-82
2023/02/03 08:35:45;;;;;;;31.77;5.38;;;9.00;99.90;;;;;;6336938;22;20381;-82
2023/02/03 08:38:12;;;;;;;48.13;6.85;;;9.20;99.90;;;;;;6314886;22;20481;-81
2023/02/03 08:40:38;;;;;;;33.88;6.15;;;9.00;99.90;;;;;;6311687;22;20457;-83
2023/02/03 08:43:07;;;;;;;44.53;6.28;;;9.20;99.90;;;;;;6312263;22;20011;-82
2023/02/03 08:45:41;;;;;;;43.47;6.03;;;9.20;99.90;;;;;;6313059;22;20021;-82
2023/02/03 08:48:17;;;;;;;44.88;5.90;;;9.10;99.90;;;;;;6312413;22;20068;-81
2023/02/03 08:50:50;;;;;;;45.95;5.72;;;8.60;99.90;;;;;;6310846;22;20022;-80
2023/02/03 08:53:16;;;;;;;46.70;6.85;;;8.60;99.90;;;;;;6310066;22;20015;-84
2023/02/03 08:55:42;;;;;;;39.25;5.85;;;8.70;99.90;;;;;;6336830;22;20389;-82
2023/02/03 08:58:13;;;;;;;47.75;5.95;;;9.10;99.90;;;;;;6336412;22;20013;-82
2023/02/03 09:00:46;;;;;;;42.97;6.20;;;8.80;99.90;;;;;;6311774;22;20069;-84
2023/02/03 09:03:12;;;;;;;40.10;6.18;;;9.20;99.90;;;;;;6312204;22;20014;-82
2023/02/03 09:05:38;;;;;;;43.85;6.50;;;8.90;99.90;;;;;;6308392;22;20017;-84
2023/02/03 09:08:04;;;;;;;44.00;5.80;;;8.90;99.90;;;;;;6338156;22;20010;-81
2023/02/03 09:10:29;;;;;;;49.97;6.88;;;8.80;99.90;;;;;;6337107;22;20044;-84
2023/02/03 09:12:55;;;;;;;40.63;4.95;;;8.80;99.90;;;;;;6335858;22;20022;-84
2023/02/03 09:15:21;;;;;;;50.30;6.00;;;8.90;99.90;;;;;;6358155;22;20100;-83
2023/02/03 09:18:10;;;;;;;34.30;5.82;;;9.20;99.90;;;;;;6362165;22;20102;-82
2023/02/03 09:20:48;;;;;;;36.53;5.60;;;9.00;99.90;;;;;;6260256;22;20288;-84
2023/02/03 09:23:14;;;;;;;42.22;6.68;;;9.40;99.90;;;;;;6220507;22;20015;-82
2023/02/03 09:25:39;;;;;;;47.38;6.10;;;9.10;99.90;;;;;;6274794;22;20102;-83
2023/02/03 09:28:07;;;;;;;36.45;5.72;;;9.30;99.90;;;;;;6276410;22;20015;-84
2023/02/03 09:30:42;;;;;;;50.95;6.30;;;9.50;99.90;;;;;;6247198;22;20047;-83
2023/02/03 09:33:08;;;;;;;41.35;6.07;;;9.40;99.90;;;;;;6271835;22;20023;-83
2023/02/03 09:35:33;;;;;;;49.28;7.22;;;9.10;99.90;;;;;;6299457;22;20344;-82
2023/02/03 09:38:00;;;;;;;41.67;6.22;;;9.20;99.90;;;;;;6274747;22;20027;-83
2023/02/03 09:40:33;;;;;;;48.08;6.78;;;9.40;99.90;;;;;;6275614;22;20009;-85
2023/02/03 09:43:14;;;;;;;42.03;5.72;;;9.10;99.90;;;;;;6272005;22;20026;-82
2023/02/03 09:45:40;;;;;;;43.90;6.20;;;9.40;99.90;;;;;;6274725;22;20176;-80
2023/02/03 09:48:14;;;;;;;48.97;6.78;;;9.30;99.90;;;;;;6271272;22;20423;-82
2023/02/03 09:50:42;;;;;;;52.08;7.88;;;9.00;99.90;;;;;;6278862;22;20019;-82
2023/02/03 09:53:21;;;;;;;45.13;7.10;;;9.10;99.90;;;;;;6336196;22;20022;-82
2023/02/03 09:55:47;;;;;;;46.95;6.85;;;9.50;99.90;;;;;;6337529;22;20044;-83
2023/02/03 09:58:19;;;;;;;52.58;7.18;;;9.10;99.90;;;;;;6335075;22;20006;-82
2023/02/03 10:00:55;;;;;;;48.80;7.05;;;9.50;99.90;;;;;;6337025;22;20162;-84
2023/02/03 10:03:34;;;;;;;57.97;7.03;;;9.10;99.90;;;;;;6333532;22;20018;-83
2023/02/03 10:06:38;;;;;;;48.35;7.60;;;9.10;99.90;;;;;;6334305;22;20018;-83
2023/02/03 10:09:18;;;;;;;48.08;7.53;;;9.10;99.90;;;;;;6335390;22;20022;-81
2023/02/03 10:12:28;;;;;;;67.13;7.80;;;9.20;99.90;;;;;;6338970;22;20043;-82
2023/02/03 10:15:29;;;;;;;34.95;6.05;;;9.20;99.90;;;;;;6332351;22;20043;-82
2023/02/03 10:18:23;;;;;;;48.75;6.97;;;9.10;99.90;;;;;;6188660;23;20016;-83
2023/02/03 10:20:57;;;;;;;41.97;6.22;;;9.40;99.90;;;;;;6189314;23;20047;-82
2023/02/03 10:23:42;;;;;;;56.05;7.97;;;9.50;99.90;;;;;;6189751;23;20012;-82
2023/02/03 10:26:16;;;;;;;49.17;6.97;;;9.40;99.90;;;;;;6190547;23;20328;-81
2023/02/03 10:28:56;;;;;;;54.83;7.47;;;9.50;99.90;;;;;;6187707;23;20022;-83
2023/02/03 10:31:26;;;;;;;51.38;6.82;;;9.10;99.90;;;;;;6212491;23;20050;-81
2023/02/03 10:34:07;;;;;;;59.10;7.90;;;9.30;99.90;;;;;;6189240;23;20016;-82
2023/02/03 10:36:56;;;;;;;40.33;6.85;;;9.10;99.90;;;;;;6212789;23;20460;-81
2023/02/03 10:39:46;;;;;;;59.90;7.88;;;9.50;99.90;;;;;;6213780;23;20191;-82
2023/02/03 10:42:12;;;;;;;74.65;8.85;;;9.20;99.90;;;;;;6212876;23;20085;-80
2023/02/03 10:44:41;;;;;;;50.25;8.45;;;9.20;99.90;;;;;;6212996;23;20011;-82
2023/02/03 10:47:22;;;;;;;51.22;8.95;;;9.50;99.90;;;;;;6209661;23;20016;-84
2023/02/03 10:49:50;;;;;;;50.97;9.07;;;9.30;99.90;;;;;;6187119;23;20559;-82
2023/02/03 10:52:31;;;;;;;57.22;7.95;;;9.30;99.90;;;;;;6188067;23;20118;-83
2023/02/03 10:54:58;;;;;;;44.50;6.35;;;9.50;99.90;;;;;;6304152;22;20018;-82
2023/02/03 10:57:26;;;;;;;64.30;8.18;;;9.60;99.90;;;;;;6336319;22;20101;-81
2023/02/03 11:00:07;;;;;;;46.88;8.07;;;9.60;99.90;;;;;;6336283;22;20026;-80
2023/02/03 11:02:53;;;;;;;54.65;7.45;;;9.40;99.90;;;;;;6335909;22;20025;-80
2023/02/03 11:05:27;;;;;;;59.15;8.98;;;9.40;99.90;;;;;;6335603;22;20493;-81
2023/02/03 11:07:54;;;;;;;57.00;6.25;;;9.40;99.90;;;;;;6363501;22;20346;-81
2023/02/03 11:11:01;;;;;;;57.97;7.97;;;9.40;99.90;;;;;;6363931;22;20067;-79
2023/02/03 11:13:27;;;;;;;59.17;8.30;;;9.50;99.90;;;;;;6248193;22;20122;-81
2023/02/03 11:16:14;;;;;;;49.50;8.38;;;9.50;99.90;;;;;;6246503;22;20055;-80
2023/02/03 11:19:01;;;;;;;62.20;8.20;;;9.50;99.90;;;;;;6245545;22;20015;-81
2023/02/03 11:22:04;;;;;;;50.25;8.35;;;9.40;99.90;;;;;;6299752;22;20023;-81
2023/02/03 11:24:39;;;;;;;61.70;8.68;;;9.50;99.90;;;;;;6245769;22;20459;-80
2023/02/03 11:27:21;;;;;;;56.33;8.10;;;9.50;99.90;;;;;;6270964;22;20354;-80
2023/02/03 11:30:22;;;;;;;54.75;7.95;;;9.40;99.90;;;;;;6252657;22;20015;-81
2023/02/03 11:32:48;;;;;;;58.58;7.93;;;9.30;99.90;;;;;;6241403;22;20087;-83
2023/02/03 11:35:20;;;;;;;56.90;8.85;;;9.50;99.90;;;;;;6273126;22;20019;-80
2023/02/03 11:37:48;;;;;;;54.78;8.23;;;9.40;99.90;;;;;;6273899;22;20135;-83
2023/02/03 11:40:14;;;;;;;65.15;8.52;;;9.30;99.90;;;;;;6245573;22;20336;-80
2023/02/03 11:42:42;;;;;;;49.17;7.53;;;9.40;99.90;;;;;;6306427;22;20045;-81
2023/02/03 11:45:29;;;;;;;55.60;8.32;;;9.40;99.90;;;;;;6249661;22;20019;-83
2023/02/03 11:48:00;;;;;;;49.65;8.00;;;9.40;99.90;;;;;;6279368;22;20436;-81
2023/02/03 11:50:43;;;;;;;53.25;9.07;;;9.30;99.90;;;;;;6338609;22;20151;-84
2023/02/03 11:53:26;;;;;;;58.90;8.15;;;9.30;99.90;;;;;;6338860;22;20147;-83
2023/02/03 11:56:33;;;;;;;44.15;6.95;;;9.20;99.90;;;;;;6374025;22;20021;-81
2023/02/03 11:59:31;;;;;;;45.45;7.38;;;9.30;99.90;;;;;;6333942;22;20025;-82
2023/02/03 12:02:20;;;;;;;54.67;8.10;;;9.40;99.90;;;;;;6338354;22;20075;-84
2023/02/03 12:04:51;;;;;;;43.25;7.43;;;9.50;99.90;;;;;;6336219;22;20010;-84
2023/02/03 12:07:41;;;;;;;46.88;8.02;;;9.50;99.90;;;;;;6336081;22;20059;-83
2023/02/03 12:11:04;;;;;;;42.65;6.93;;;9.60;99.90;;;;;;6363017;22;20433;-82
2023/02/03 12:14:04;;;;;;;55.75;7.88;;;9.70;99.90;;;;;;6334615;22;20029;-80
2023/02/03 12:16:39;;;;;;;56.25;8.95;;;9.60;99.90;;;;;;6334340;22;20537;-81
2023/02/03 12:19:23;;;;;;;39.40;6.93;;;9.50;99.90;;;;;;6339596;22;20010;-86
2023/02/03 12:22:08;;;;;;;47.58;7.60;;;9.50;99.90;;;;;;6339288;22;20181;-82
2023/02/03 12:28:46;;;;;;;47.38;8.10;;;9.60;99.90;;;;;;6356953;22;20050;-82
2023/02/03 12:32:21;;;;;;;;;;;;;;;;;;;;;
2023/02/03 12:39:12;;;;;;;42.33;6.72;;;9.50;99.90;;;;;;6325491;22;20030;-82
2023/02/03 12:42:09;;;;;;;46.63;8.00;;;9.60;99.90;;;;;;6325826;22;20095;-82
2023/02/03 12:45:43;;;;;;;45.28;5.82;;;9.40;99.90;;;;;;6277527;22;20068;-82
2023/02/03 12:56:23;;;;;;;;;;;;;;;;;;;;;
2023/02/03 13:00:29;;;;;;;;;;;;;;;;;;;;;
2023/02/03 14:15:30;;;;;;;;;;;;;;;;;;;;;
2023/02/03 14:18:52;;;;;;;41.97;8.23;;;8.60;99.90;;;;;;6363839;22;20206;-83
2023/02/03 14:26:07;;;;;;;;;;;;;;;;;;;;;
2023/02/03 14:29:33;;;;;;;51.22;7.60;;;8.60;99.90;;;;;;6237022;23;20063;-83
2023/02/03 14:32:53;;;;;;;37.92;5.28;;;8.60;99.90;;;;;;6208159;23;20016;-82
2023/02/03 14:37:20;;;;;;;;;;;;;;;;;;;;;
2023/02/03 14:39:53;;;;;;;34.42;6.65;;;8.70;99.90;;;;;;5966219;24;20020;-83
2023/02/03 14:42:53;;;;;;;52.28;7.07;;;8.70;99.90;;;;;;5972145;24;20160;-82
2023/02/03 14:45:49;;;;;;;34.72;4.88;;;8.70;99.90;;;;;;5918481;24;20127;-82
2023/02/03 14:49:15;;;;;;;46.22;6.95;;;8.70;99.90;;;;;;5916144;24;20099;-82
2023/02/03 14:56:13;;;;;;;48.63;7.05;;;8.60;99.90;;;;;;5788156;24;20252;-82
2023/02/03 14:58:59;;;;;;;45.60;6.53;;;8.60;99.90;;;;;;5790725;24;20011;-81
2023/02/03 15:01:48;;;;;;;43.38;7.07;;;8.60;99.90;;;;;;5766780;24;20022;-82
2023/02/03 15:04:32;;;;;;;41.83;6.95;;;8.60;99.90;;;;;;5790475;24;20122;-82
2023/02/03 15:07:53;;;;;;;42.03;7.43;;;8.50;99.90;;;;;;5812927;24;20468;-82
2023/02/03 15:10:38;;;;;;;37.13;6.50;;;8.60;99.90;;;;;;5865478;24;20162;-82
2023/02/03 15:13:03;;;;;;;36.25;5.72;;;8.50;99.90;;;;;;5862630;24;20020;-85
2023/02/03 15:15:32;;;;;;;39.17;7.18;;;8.40;99.90;;;;;;6071427;23;20026;-86
2023/02/03 15:18:28;;;;;;;42.50;7.38;;;8.40;99.90;;;;;;6147162;23;20024;-82
2023/02/03 15:21:31;;;;;;;42.05;7.13;;;8.40;99.90;;;;;;6096298;23;20053;-82
2023/02/03 15:24:18;;;;;;;33.40;5.32;;;8.40;99.90;;;;;;6088605;23;20066;-82
2023/02/03 15:26:52;;;;;;;40.15;6.20;;;8.30;99.90;;;;;;6043040;23;20015;-81
2023/02/03 15:29:29;;;;;;;46.85;5.65;;;8.30;99.90;;;;;;6092745;23;20538;-81
2023/02/03 15:32:04;;;;;;;37.90;5.88;;;8.30;99.90;;;;;;6186934;23;20099;-82
2023/02/03 15:34:48;;;;;;;39.40;5.60;;;8.20;99.90;;;;;;6213345;23;20148;-82
2023/02/03 15:37:18;;;;;;;39.30;6.35;;;8.20;99.90;;;;;;6213804;23;20051;-82
2023/02/03 15:40:08;;;;;;;39.15;6.25;;;8.20;99.90;;;;;;6198078;23;20061;-82
2023/02/03 15:42:46;;;;;;;37.65;6.05;;;8.10;99.90;;;;;;6189291;23;20040;-83
2023/02/03 15:45:38;;;;;;;36.97;5.95;;;8.10;99.90;;;;;;6185362;23;20052;-83
2023/02/03 15:55:55;;;;;;;36.45;5.80;;;7.90;99.90;;;;;;6134673;23;20893;-83
2023/02/03 15:58:24;;;;;;;38.38;5.53;;;7.90;99.90;;;;;;6147619;23;20539;-82
2023/02/03 16:04:41;;;;;;;34.72;6.07;;;7.90;99.90;;;;;;6171313;23;20020;-83
2023/02/03 16:07:19;;;;;;;54.65;6.50;;;7.90;99.90;;;;;;6150576;23;20017;-81
2023/02/03 16:09:45;;;;;;;40.05;6.72;;;7.90;99.90;;;;;;6148049;23;20021;-81
2023/02/03 16:12:20;;;;;;;43.63;6.88;;;7.80;99.90;;;;;;6174541;23;20044;-82
2023/02/03 16:14:55;;;;;;;50.70;7.13;;;7.80;99.90;;;;;;6148043;23;20428;-82
2023/02/03 16:21:39;;;;;;;;;;;7.80;99.90;;;;;;6150013;23;20027;-82
2023/02/03 16:24:08;;;;;;;35.40;6.40;;;7.70;99.90;;;;;;6151425;23;19912;-81
2023/02/03 16:27:20;;;;;;;57.38;8.07;;;7.70;99.90;;;;;;6123771;23;20044;-82
2023/02/03 16:52:05;;;;;;;52.33;8.23;;;7.70;99.90;;;;;;6118678;23;20040;-82
2023/02/03 16:54:49;;;;;;;58.30;7.28;;;7.80;99.90;;;;;;6072206;23;20024;-81
2023/02/03 16:58:02;;;;;;;66.38;7.47;;;7.70;99.90;;;;;;6082594;23;20041;-81
2023/02/03 17:00:53;;;;;;;47.72;6.60;;;7.70;99.90;;;;;;6014030;23;20023;-82
2023/02/03 17:03:24;;;;;;;40.95;5.43;;;7.70;99.90;;;;;;5981443;23;20015;-82
2023/02/03 17:06:12;;;;;;;50.25;6.68;;;7.70;99.90;;;;;;6004811;23;20019;-81
2023/02/03 17:08:41;;;;;;;49.65;6.55;;;7.50;99.90;;;;;;5985391;23;20047;-83
2023/02/03 17:11:18;;;;;;;46.15;7.55;;;7.70;99.90;;;;;;6009978;23;20115;-88
2023/02/03 17:13:44;;;;;;;43.17;5.50;;;7.80;99.90;;;;;;6006163;23;20342;-82
2023/02/03 17:16:16;;;;;;;42.17;7.60;;;7.70;99.90;;;;;;6006525;23;20019;-83
2023/02/03 17:18:44;;;;;;;40.67;6.03;;;7.70;99.90;;;;;;5982585;23;20102;-83
2023/02/03 17:21:17;;;;;;;51.17;7.13;;;7.60;99.90;;;;;;5983832;23;20411;-84
2023/02/03 17:23:46;;;;;;;53.25;6.95;;;7.70;99.90;;;;;;6027979;23;20240;-82
2023/02/03 17:26:11;;;;;;;48.50;7.18;;;8.00;99.90;;;;;;6064161;23;20026;-87
2023/02/03 17:28:39;;;;;;;42.97;6.50;;;7.70;99.90;;;;;;6044907;23;20019;-82
2023/02/03 17:31:06;;;;;;;42.92;6.90;;;7.80;99.90;;;;;;6046177;23;20022;-83
2023/02/03 17:33:33;;;;;;;48.42;6.78;;;7.70;99.90;;;;;;6065403;23;20021;-81
2023/02/03 17:39:23;;;;;;;49.67;6.35;;;7.70;99.90;;;;;;6305425;22;20025;-82
2023/02/03 17:41:51;;;;;;;46.90;6.45;;;7.90;99.90;;;;;;6280036;22;20014;-82
2023/02/03 17:44:17;;;;;;;47.35;6.22;;;7.70;99.90;;;;;;6305965;22;20499;-82
2023/02/03 17:46:43;;;;;;;40.05;6.35;;;7.80;99.90;;;;;;6281443;22;20159;-81
2023/02/03 17:49:39;;;;;;;38.30;6.85;;;7.90;99.90;;;;;;6279309;22;20006;-83
2023/02/03 17:52:05;;;;;;;42.13;6.20;;;7.90;99.90;;;;;;6307048;22;20272;-80
2023/02/03 17:54:31;;;;;;;41.80;6.43;;;7.80;99.90;;;;;;6280724;22;20010;-80
2023/02/03 17:56:56;;;;;;;39.50;5.63;;;7.90;99.90;;;;;;6307094;22;20010;-80
2023/02/03 17:59:22;;;;;;;45.45;6.55;;;7.80;99.90;;;;;;6279642;22;20293;-84
2023/02/03 18:01:52;;;;;;;43.88;6.43;;;7.70;99.90;;;;;;6308687;22;20094;-81
2023/02/03 18:04:23;;;;;;;40.90;6.05;;;7.80;99.90;;;;;;6307959;22;20011;-82
2023/02/03 18:06:48;;;;;;;42.80;6.75;;;7.80;99.90;;;;;;6283106;22;20015;-81
2023/02/03 18:09:15;;;;;;;42.92;6.78;;;7.80;99.90;;;;;;6308882;22;20161;-81
2023/02/03 18:11:41;;;;;;;45.42;6.70;;;7.80;99.90;;;;;;6310817;22;20045;-82
2023/02/03 18:14:10;;;;;;;38.28;5.55;;;7.70;99.90;;;;;;6309171;22;20089;-82
2023/02/03 18:16:36;;;;;;;48.63;7.38;;;7.80;99.90;;;;;;6309617;22;20030;-81
2023/02/03 18:19:05;;;;;;;45.80;6.35;;;7.80;99.90;;;;;;6312551;22;20088;-82
2023/02/03 18:25:15;;;;;;;43.00;6.95;;;7.80;99.90;;;;;;6320036;22;20033;-80
2023/02/03 18:27:41;;;;;;;49.08;7.03;;;7.80;99.90;;;;;;6292485;22;20155;-82
2023/02/03 18:30:10;;;;;;;48.42;7.10;;;7.70;99.90;;;;;;6295669;22;20118;-81
2023/02/03 18:32:35;;;;;;;46.58;7.65;;;7.70;99.90;;;;;;6295315;22;20015;-81
2023/02/03 18:35:02;;;;;;;58.22;7.97;;;7.60;99.90;;;;;;6320901;22;20078;-80
2023/02/03 18:37:28;;;;;;;53.60;6.70;;;7.60;99.90;;;;;;6322147;22;20015;-80
2023/02/03 18:39:54;;;;;;;45.78;6.43;;;7.70;99.90;;;;;;6320118;22;20149;-79
2023/02/03 18:42:19;;;;;;;58.60;7.68;;;7.50;99.90;;;;;;6295072;22;20019;-81
2023/02/03 18:44:45;;;;;;;56.58;7.38;;;7.50;99.90;;;;;;6297444;22;20011;-80
2023/02/03 18:47:11;;;;;;;60.55;7.82;;;7.40;99.90;;;;;;6298041;22;20498;-81
2023/02/03 18:53:18;;;;;;;53.25;7.25;;;7.50;99.90;;;;;;6324929;22;20322;-80
2023/02/03 18:55:44;;;;;;;44.08;5.68;;;7.30;99.90;;;;;;6298155;22;20002;-80
2023/02/03 18:58:11;;;;;;;53.95;7.22;;;7.50;99.90;;;;;;6300827;22;20011;-81
2023/02/03 19:00:38;;;;;;;48.60;6.75;;;7.40;99.90;;;;;;6303447;22;20022;-81
2023/02/03 19:03:04;;;;;;;60.47;8.82;;;7.40;99.90;;;;;;6301252;22;20026;-80
2023/02/03 19:09:06;;;;;;;65.80;7.70;;;7.50;99.90;;;;;;6327487;22;20023;-82
2023/02/03 19:11:32;;;;;;;52.83;7.38;;;7.40;99.90;;;;;;6325265;22;20015;-80
2023/02/03 19:13:58;;;;;;;43.83;5.97;;;7.10;99.90;;;;;;6295112;22;20008;-81
2023/02/03 19:16:24;;;;;;;67.50;8.73;;;7.10;99.90;;;;;;6269699;22;20505;-80
2023/02/03 19:18:50;;;;;;;55.05;7.50;;;7.00;99.90;;;;;;6268952;22;20054;-80
2023/02/03 19:21:16;;;;;;;48.35;6.53;;;7.10;99.90;;;;;;6268468;22;20079;-81
2023/02/03 19:23:42;;;;;;;62.17;8.00;;;7.00;99.90;;;;;;6267378;22;20061;-80
2023/02/03 19:26:09;;;;;;;60.70;7.68;;;7.30;99.90;;;;;;6293985;22;20019;-80
2023/02/03 19:28:38;;;;;;;57.45;8.25;;;7.10;99.90;;;;;;6268433;22;20026;-81
2023/02/03 19:31:10;;;;;;;62.75;8.07;;;6.90;99.90;;;;;;6270986;22;20374;-82
2023/02/03 19:33:36;;;;;;;64.03;7.93;;;7.00;99.90;;;;;;6294790;22;20016;-81
2023/02/03 19:36:04;;;;;;;62.10;7.32;;;7.00;99.90;;;;;;6295690;22;20067;-81
2023/02/03 19:38:29;;;;;;;62.63;7.43;;;6.80;99.90;;;;;;6267733;22;20010;-81
2023/02/03 19:40:55;;;;;;;65.30;8.65;;;7.10;99.90;;;;;;6296517;22;20012;-80
2023/02/03 19:43:23;;;;;;;56.10;7.65;;;6.80;99.90;;;;;;6291336;22;20008;-80
2023/02/03 19:45:49;;;;;;;50.58;6.85;;;7.20;99.90;;;;;;6292918;22;20035;-80
2023/02/03 19:48:15;;;;;;;51.75;6.45;;;7.10;99.90;;;;;;6266115;22;20011;-81
2023/02/03 19:54:22;;;;;;;62.55;8.18;;;7.20;99.90;;;;;;6295050;22;20121;-81
2023/02/03 19:56:48;;;;;;;38.25;5.30;;;7.10;99.90;;;;;;6265615;22;20011;-80
2023/02/03 19:59:13;;;;;;;43.10;7.13;;;7.40;99.90;;;;;;6290601;22;20011;-79
2023/02/03 20:01:39;;;;;;;43.42;6.38;;;7.00;99.90;;;;;;6294869;22;20020;-80
2023/02/03 20:04:06;;;;;;;57.20;7.70;;;7.30;99.90;;;;;;6267645;22;20023;-80
2023/02/03 20:06:32;;;;;;;58.33;8.15;;;7.10;99.90;;;;;;6294161;22;20031;-80
2023/02/03 20:08:59;;;;;;;58.65;7.68;;;7.10;99.90;;;;;;6293150;22;20027;-80
2023/02/03 20:11:25;;;;;;;49.13;6.88;;;7.10;99.90;;;;;;6268589;22;20011;-79
2023/02/03 20:13:52;;;;;;;50.83;7.25;;;7.30;99.90;;;;;;6286337;22;20021;-80
2023/02/03 20:16:18;;;;;;;53.58;7.32;;;7.30;99.90;;;;;;6298437;22;20030;-80
2023/02/03 20:18:44;;;;;;;69.63;8.60;;;7.40;99.90;;;;;;6323472;22;20020;-80
2023/02/03 20:21:47;;;;;;;60.33;8.57;;;7.30;99.90;;;;;;6296635;22;20034;-80
2023/02/03 20:24:13;;;;;;;58.47;7.78;;;7.30;99.90;;;;;;6324752;22;20007;-80
2023/02/03 20:26:39;;;;;;;49.15;7.88;;;7.10;99.90;;;;;;6295551;22;20015;-80
2023/02/03 20:29:04;;;;;;;56.28;7.63;;;7.40;99.90;;;;;;6320807;22;20021;-80
2023/02/03 20:31:30;;;;;;;55.28;7.63;;;7.20;99.90;;;;;;6319874;22;20019;-80
2023/02/03 20:33:56;;;;;;;61.83;7.57;;;7.00;99.90;;;;;;6292497;22;20049;-79
2023/02/03 20:37:18;;;;;;;60.72;6.68;;;7.40;99.90;;;;;;6293712;22;20015;-79
2023/02/03 20:39:43;;;;;;;59.13;7.32;;;7.20;99.90;;;;;;6319970;22;20012;-80
2023/02/03 20:42:15;;;;;;;47.83;7.00;;;7.10;99.90;;;;;;6320563;22;20012;-79
2023/02/03 20:44:42;;;;;;;36.50;4.97;;;7.30;99.90;;;;;;6293271;22;20401;-81
2023/02/03 20:47:13;;;;;;;57.58;8.55;;;7.40;99.90;;;;;;6318305;22;20015;-79
2023/02/03 20:49:39;;;;;;;50.80;6.85;;;7.20;99.90;;;;;;6322340;22;20021;-80
2023/02/03 20:52:11;;;;;;;50.10;7.03;;;7.20;99.90;;;;;;6290362;22;20035;-79
2023/02/03 20:54:37;;;;;;;53.30;7.03;;;7.20;99.90;;;;;;6291158;22;20015;-80
2023/02/03 20:57:10;;;;;;;50.08;6.70;;;7.40;99.90;;;;;;6294079;22;20015;-81
2023/02/03 20:59:36;;;;;;;53.40;6.90;;;7.40;99.90;;;;;;6320146;22;20067;-80
2023/02/03 21:02:09;;;;;;;59.72;6.22;;;7.30;99.90;;;;;;6293639;22;20011;-81
2023/02/03 21:07:19;;;;;;;53.83;5.78;;;7.00;99.90;;;;;;6322944;22;20034;-82
2023/02/03 21:09:44;;;;;;;53.95;6.95;;;7.30;99.90;;;;;;6324571;22;20015;-82
2023/02/03 21:12:13;;;;;;;52.38;5.82;;;7.40;99.90;;;;;;6298196;22;20026;-82
2023/02/03 21:14:47;;;;;;;58.78;6.30;;;7.10;99.90;;;;;;6323538;22;20019;-81
2023/02/03 21:17:24;;;;;;;46.38;7.25;;;7.20;99.90;;;;;;6296262;22;20015;-82
2023/02/03 21:19:51;;;;;;;48.53;6.15;;;7.10;99.90;;;;;;6322595;22;20022;-82
2023/02/03 21:22:19;;;;;;;47.58;6.63;;;7.00;99.90;;;;;;6294088;22;20012;-81
2023/02/03 21:24:55;;;;;;;45.53;6.60;;;6.90;99.90;;;;;;6322089;22;20011;-81
2023/02/03 21:27:23;;;;;;;51.92;6.93;;;7.00;99.90;;;;;;6294473;22;20015;-81
2023/02/03 21:29:50;;;;;;;58.35;8.65;;;7.00;99.90;;;;;;6320416;22;20026;-80
2023/02/03 21:32:16;;;;;;;46.95;7.38;;;7.30;99.90;;;;;;6295319;22;20023;-81
2023/02/03 21:34:42;;;;;;;37.25;4.97;;;7.00;99.90;;;;;;6319981;22;20347;-81
2023/02/03 21:37:40;;;;;;;53.63;6.45;;;7.40;99.90;;;;;;6292593;22;20071;-80
2023/02/03 21:40:33;;;;;;;63.35;6.32;;;7.00;99.90;;;;;;6296157;22;20011;-79
2023/02/03 21:43:01;;;;;;;50.78;6.65;;;6.90;99.90;;;;;;6316301;22;20011;-79
2023/02/03 21:45:33;;;;;;;55.60;7.68;;;6.80;99.90;;;;;;6324523;22;20117;-79
2023/02/03 21:48:00;;;;;;;53.83;7.20;;;6.80;99.90;;;;;;6292146;22;20016;-80
2023/02/03 21:51:14;;;;;;;65.38;6.68;;;7.20;99.90;;;;;;6294103;22;20029;-79
2023/02/03 21:53:42;;;;;;;54.35;7.38;;;7.00;99.90;;;;;;6316869;22;20069;-78
2023/02/03 21:56:17;;;;;;;48.20;7.40;;;6.70;99.90;;;;;;6290688;22;20019;-80
2023/02/03 21:58:45;;;;;;;57.47;8.43;;;7.00;99.90;;;;;;6323307;22;20062;-79
2023/02/03 22:01:15;;;;;;;52.40;7.07;;;6.70;99.90;;;;;;6322065;22;20026;-79
2023/02/03 22:03:43;;;;;;;56.28;7.88;;;6.80;99.90;;;;;;6320967;22;20038;-80
2023/02/03 22:06:21;;;;;;;62.58;8.02;;;7.00;99.90;;;;;;6293764;22;20034;-79
2023/02/03 22:08:49;;;;;;;51.65;6.65;;;6.70;99.90;;;;;;6291969;22;20308;-79
2023/02/03 22:11:17;;;;;;;55.00;7.60;;;6.90;99.90;;;;;;6295135;22;20082;-78
2023/02/03 22:13:43;;;;;;;55.40;7.30;;;6.70;99.90;;;;;;6321588;22;20035;-80
2023/02/03 22:16:09;;;;;;;61.00;7.90;;;6.90;99.90;;;;;;6318364;22;20129;-81
2023/02/03 22:18:35;;;;;;;60.90;7.13;;;6.50;99.90;;;;;;6322953;22;20020;-81
2023/02/03 22:21:02;;;;;;;53.92;7.43;;;6.90;99.90;;;;;;6296761;22;20067;-81
2023/02/03 22:23:28;;;;;;;65.32;7.40;;;6.80;99.90;;;;;;6321455;22;20035;-81
2023/02/03 22:25:54;;;;;;;59.40;7.47;;;6.80;99.90;;;;;;6324445;22;20003;-82
2023/02/03 22:28:19;;;;;;;62.88;7.93;;;6.60;99.90;;;;;;6329055;22;20026;-81
2023/02/03 22:30:45;;;;;;;60.08;6.90;;;6.40;99.90;;;;;;6302370;22;20271;-80
2023/02/03 22:33:11;;;;;;;48.33;6.30;;;6.70;99.90;;;;;;6320418;22;20018;-77
2023/02/03 22:35:42;;;;;;;62.25;6.82;;;6.60;99.90;;;;;;6293896;22;20015;-81
2023/02/03 22:38:08;;;;;;;48.03;7.03;;;6.70;99.90;;;;;;6296851;22;20015;-81
2023/02/03 22:40:34;;;;;;;54.50;6.93;;;6.40;99.90;;;;;;6323027;22;20018;-81
2023/02/03 22:42:59;;;;;;;48.88;7.28;;;6.50;99.90;;;;;;6321611;22;20039;-81
2023/02/03 22:45:25;;;;;;;66.40;7.57;;;6.40;99.90;;;;;;6320667;22;20018;-81
2023/02/03 22:47:51;;;;;;;55.55;6.90;;;6.80;99.90;;;;;;6321137;22;20065;-81
2023/02/03 22:50:17;;;;;;;56.45;6.80;;;6.50;99.90;;;;;;6296219;22;20015;-81
2023/02/03 22:52:42;;;;;;;60.08;7.45;;;6.50;99.90;;;;;;6304678;22;20022;-81
2023/02/03 22:55:09;;;;;;;71.90;7.88;;;6.50;99.90;;;;;;6304903;22;20140;-81
2023/02/03 22:57:36;;;;;;;46.70;6.18;;;6.90;99.90;;;;;;6304286;22;20011;-81
2023/02/03 23:00:09;;;;;;;61.45;7.13;;;6.80;99.90;;;;;;6301022;22;20021;-81
2023/02/03 23:02:39;;;;;;;59.80;7.03;;;6.60;99.90;;;;;;6324755;22;20074;-81
2023/02/03 23:05:07;;;;;;;44.08;5.88;;;6.50;99.90;;;;;;6297374;22;20015;-81
2023/02/03 23:07:33;;;;;;;70.88;7.82;;;6.70;99.90;;;;;;6323994;22;20015;-81
2023/02/03 23:09:59;;;;;;;57.40;7.72;;;6.40;99.90;;;;;;6322596;22;20044;-81
2023/02/03 23:12:24;;;;;;;69.50;7.00;;;6.70;99.90;;;;;;6316785;22;20015;-81
2023/02/03 23:14:50;;;;;;;46.28;6.82;;;6.80;99.90;;;;;;6285121;22;20073;-81
2023/02/03 23:17:16;;;;;;;63.80;8.38;;;6.60;99.90;;;;;;6310890;22;20023;-81
2023/02/03 23:19:42;;;;;;;54.22;6.47;;;6.80;99.90;;;;;;6284578;22;20007;-81
2023/02/03 23:22:08;;;;;;;51.22;6.72;;;6.80;99.90;;;;;;6313579;22;20018;-81
2023/02/03 23:24:34;;;;;;;63.97;8.30;;;6.40;99.90;;;;;;6309002;22;20038;-81
2023/02/03 23:27:00;;;;;;;55.92;8.05;;;7.00;99.90;;;;;;6309411;22;20075;-81
2023/02/03 23:29:26;;;;;;;64.90;7.55;;;6.80;99.90;;;;;;6308876;22;20014;-82
2023/02/03 23:31:52;;;;;;;71.97;8.13;;;7.00;99.90;;;;;;6308028;22;20019;-83